Time;durP1;ratioP1;P1;durP2;ratioP2;P2;SDS_P1;SDS_P2;PMS_P1;PMS_P2;Temp;Humidity;BMP_temperature;BMP_pressure;BME280_temperature;BME280_humidity;BME280_pressure;Samples;Min_cycle;Max_cycle;Signal;HPM_P1;HPM_P2
2020/12/25 00:00:49;;;;;;;2.70;0.50;;;4.70;99.90;;;;;;5037538;28;38016;-78
2020/12/25 00:03:15;;;;;;;2.20;0.63;;;4.80;99.90;;;;;;5050370;28;37024;-78
2020/12/25 00:05:51;;;;;;;2.97;0.50;;;4.80;99.90;;;;;;5045887;28;39230;-77
2020/12/25 00:08:20;;;;;;;1.23;0.97;;;4.70;99.90;;;;;;5041194;28;39135;-78
2020/12/25 00:10:46;;;;;;;2.00;0.60;;;4.80;99.90;;;;;;5058940;28;39931;-77
2020/12/25 00:13:15;;;;;;;1.70;0.50;;;4.90;99.90;;;;;;5045055;28;37589;-77
2020/12/25 00:15:45;;;;;;;1.33;0.40;;;4.90;99.90;;;;;;5044377;28;39454;-78
2020/12/25 00:18:11;;;;;;;1.90;0.47;;;5.00;99.90;;;;;;5041979;28;38414;-78
2020/12/25 00:20:37;;;;;;;0.97;0.50;;;4.90;99.90;;;;;;5051759;28;38842;-78
2020/12/25 00:23:06;;;;;;;1.37;0.40;;;4.90;99.90;;;;;;5044779;28;36982;-77
2020/12/25 00:25:32;;;;;;;3.00;0.33;;;4.90;99.90;;;;;;5053043;28;38899;-78
2020/12/25 00:27:58;;;;;;;3.00;0.83;;;4.90;99.90;;;;;;5042900;28;38199;-78
2020/12/25 00:30:24;;;;;;;4.10;0.53;;;4.90;99.90;;;;;;5057783;28;39164;-78
2020/12/25 00:32:50;;;;;;;3.87;0.40;;;4.90;99.90;;;;;;5042286;28;35988;-78
2020/12/25 00:35:16;;;;;;;0.83;0.40;;;4.80;99.90;;;;;;5060582;28;37498;-78
2020/12/25 00:37:42;;;;;;;1.63;0.30;;;4.70;99.90;;;;;;5048294;28;38924;-77
2020/12/25 00:40:09;;;;;;;3.33;0.50;;;4.50;99.90;;;;;;5040958;28;38641;-77
2020/12/25 00:42:38;;;;;;;2.33;0.40;;;4.50;99.90;;;;;;5038977;28;37421;-77
2020/12/25 00:45:04;;;;;;;2.00;0.33;;;4.30;99.90;;;;;;5057386;28;39868;-77
2020/12/25 00:47:30;;;;;;;0.57;0.40;;;4.20;99.90;;;;;;5043731;28;39279;-76
2020/12/25 00:49:57;;;;;;;2.17;0.30;;;4.20;99.90;;;;;;5037998;28;38424;-77
2020/12/25 00:52:26;;;;;;;4.00;0.50;;;4.20;99.90;;;;;;5050023;28;37132;-77
2020/12/25 00:54:52;;;;;;;3.63;0.40;;;4.20;99.90;;;;;;5060441;28;39468;-77
2020/12/25 00:57:19;;;;;;;10.40;0.50;;;4.20;99.90;;;;;;5038763;28;37606;-77
2020/12/25 00:59:50;;;;;;;2.83;0.33;;;4.20;99.90;;;;;;5040029;28;39852;-78
2020/12/25 01:02:16;;;;;;;0.30;0.27;;;4.10;99.90;;;;;;5056550;28;37157;-77
2020/12/25 01:04:49;;;;;;;4.20;0.40;;;4.10;99.90;;;;;;5045712;28;40516;-78
2020/12/25 01:07:15;;;;;;;;;;;4.10;99.90;;;;;;5039494;28;39481;-77
2020/12/25 01:09:41;;;;;;;2.43;0.30;;;4.00;99.90;;;;;;5047350;28;39578;-77
2020/12/25 01:12:07;;;;;;;4.93;0.40;;;4.10;99.90;;;;;;5041138;28;36498;-77
2020/12/25 01:14:33;;;;;;;2.07;0.40;;;4.10;99.90;;;;;;5042990;28;39828;-78
2020/12/25 01:16:59;;;;;;;2.50;0.50;;;4.10;99.90;;;;;;5048690;28;37744;-77
2020/12/25 01:19:28;;;;;;;1.10;0.60;;;4.10;99.90;;;;;;5042473;28;38285;-77
2020/12/25 01:21:54;;;;;;;4.57;0.60;;;4.10;99.90;;;;;;5043961;28;37111;-77
2020/12/25 01:24:27;;;;;;;4.00;0.60;;;4.10;99.90;;;;;;5039095;28;39382;-77
2020/12/25 01:26:53;;;;;;;6.63;0.70;;;4.20;99.90;;;;;;5045509;28;38841;-77
2020/12/25 01:29:20;;;;;;;2.93;0.67;;;4.30;99.90;;;;;;5055190;28;39522;-77
2020/12/25 01:31:46;;;;;;;1.90;0.57;;;4.30;99.90;;;;;;5052330;28;34377;-77
2020/12/25 01:34:12;;;;;;;8.87;0.80;;;4.50;99.90;;;;;;5037356;28;41846;-77
2020/12/25 01:36:38;;;;;;;3.27;0.60;;;4.60;99.90;;;;;;5042647;28;41719;-77
2020/12/25 01:39:08;;;;;;;11.70;1.00;;;4.60;99.90;;;;;;5054077;28;39041;-78
2020/12/25 01:41:39;;;;;;;7.23;1.00;;;4.70;99.90;;;;;;5051361;28;37052;-77
2020/12/25 01:44:05;;;;;;;2.87;0.80;;;4.70;99.90;;;;;;5042009;28;38476;-77
2020/12/25 01:46:32;;;;;;;4.30;0.90;;;4.80;99.90;;;;;;5056806;28;39056;-77
2020/12/25 01:48:58;;;;;;;7.03;0.80;;;4.80;99.90;;;;;;5055731;28;39136;-77
2020/12/25 01:51:24;;;;;;;5.43;0.83;;;4.80;99.90;;;;;;5032566;28;38679;-77
2020/12/25 01:53:50;;;;;;;3.23;0.80;;;4.80;99.90;;;;;;5048883;28;38925;-77
2020/12/25 01:56:18;;;;;;;8.73;1.07;;;4.80;99.90;;;;;;5036301;28;39254;-77
2020/12/25 01:58:44;;;;;;;4.60;1.50;;;4.90;99.90;;;;;;5041828;28;39636;-77
2020/12/25 02:01:11;;;;;;;8.07;1.00;;;4.90;99.90;;;;;;5059623;28;36088;-77
2020/12/25 02:03:37;;;;;;;1.57;0.67;;;4.90;99.90;;;;;;5046395;28;38779;-77
2020/12/25 02:06:03;;;;;;;3.70;0.83;;;4.90;99.90;;;;;;5042558;28;40133;-77
2020/12/25 02:08:29;;;;;;;4.43;0.93;;;4.90;99.90;;;;;;5045662;28;39817;-77
2020/12/25 02:10:56;;;;;;;6.17;0.93;;;4.80;99.90;;;;;;5062686;28;40458;-77
2020/12/25 02:13:22;;;;;;;7.43;1.10;;;4.80;99.90;;;;;;5042594;28;38961;-77
2020/12/25 02:15:48;;;;;;;7.87;2.07;;;4.70;99.90;;;;;;5047057;28;37865;-77
2020/12/25 02:18:19;;;;;;;13.40;1.40;;;4.60;99.90;;;;;;5056395;28;39089;-77
2020/12/25 02:20:47;;;;;;;5.30;1.10;;;4.60;99.90;;;;;;5050373;28;37172;-77
2020/12/25 02:23:16;;;;;;;8.10;1.30;;;4.50;99.90;;;;;;5043059;28;39843;-76
2020/12/25 02:25:46;;;;;;;2.83;0.80;;;4.40;99.90;;;;;;5051059;28;39756;-77
2020/12/25 02:28:13;;;;;;;6.50;1.23;;;4.40;99.90;;;;;;5043160;28;39654;-77
2020/12/25 02:30:39;;;;;;;7.93;1.30;;;4.40;99.90;;;;;;5042734;28;36263;-76
2020/12/25 02:33:08;;;;;;;7.20;0.93;;;4.30;99.90;;;;;;5059395;28;38142;-77
2020/12/25 02:35:34;;;;;;;7.00;1.10;;;4.20;99.90;;;;;;5051762;28;37913;-77
2020/12/25 02:38:02;;;;;;;7.57;1.10;;;4.10;99.90;;;;;;5041560;28;37312;-77
2020/12/25 02:40:29;;;;;;;9.33;1.20;;;4.10;99.90;;;;;;5031582;28;47327;-77
2020/12/25 02:42:57;;;;;;;7.50;1.10;;;4.10;99.90;;;;;;5044891;28;39008;-77
2020/12/25 02:45:23;;;;;;;10.33;1.50;;;4.10;99.90;;;;;;5044417;28;38990;-78
2020/12/25 02:47:50;;;;;;;7.40;1.17;;;4.10;99.90;;;;;;5047878;28;39535;-77
2020/12/25 02:50:16;;;;;;;4.97;0.83;;;4.10;99.90;;;;;;5063101;28;38263;-77
2020/12/25 02:52:42;;;;;;;7.00;1.10;;;4.10;99.90;;;;;;5061936;28;38137;-77
2020/12/25 02:55:12;;;;;;;5.13;1.47;;;4.20;99.90;;;;;;5052132;28;41943;-78
2020/12/25 02:57:38;;;;;;;6.13;0.83;;;4.20;99.90;;;;;;5040798;28;39965;-77
2020/12/25 03:00:04;;;;;;;6.27;0.90;;;4.30;99.90;;;;;;5055677;28;36531;-76
2020/12/25 03:02:31;;;;;;;4.87;0.80;;;4.30;99.90;;;;;;5060250;28;38396;-77
2020/12/25 03:04:57;;;;;;;7.47;1.00;;;4.40;99.90;;;;;;5043907;28;38546;-77
2020/12/25 03:07:23;;;;;;;9.33;1.30;;;4.50;99.90;;;;;;5042149;28;39252;-77
2020/12/25 03:09:49;;;;;;;7.90;1.20;;;4.50;99.90;;;;;;5048810;28;37676;-78
2020/12/25 03:12:15;;;;;;;5.77;0.97;;;4.60;99.90;;;;;;5059196;28;38880;-77
2020/12/25 03:14:41;;;;;;;7.27;1.00;;;4.60;99.90;;;;;;5028770;28;38340;-78
2020/12/25 03:17:07;;;;;;;6.33;1.33;;;4.70;99.90;;;;;;5060543;28;37686;-77
2020/12/25 03:19:39;;;;;;;10.37;0.97;;;4.70;99.90;;;;;;5062020;28;37666;-77
2020/12/25 03:22:06;;;;;;;1.63;0.65;;;4.60;99.90;;;;;;5046095;28;38832;-77
2020/12/25 03:24:32;;;;;;;3.67;0.53;;;4.60;99.90;;;;;;5047715;28;38553;-77
2020/12/25 03:27:03;;;;;;;8.40;0.87;;;4.50;99.90;;;;;;5042299;28;39047;-77
2020/12/25 03:29:30;;;;;;;8.80;0.87;;;4.40;99.90;;;;;;5042022;28;47462;-77
2020/12/25 03:31:56;;;;;;;5.37;0.53;;;4.30;99.90;;;;;;5050564;28;40243;-77
2020/12/25 03:34:22;;;;;;;6.87;1.03;;;4.30;99.90;;;;;;5044203;28;39718;-77
2020/12/25 03:36:48;;;;;;;5.67;0.80;;;4.30;99.90;;;;;;5041090;28;39114;-77
2020/12/25 03:39:14;;;;;;;10.23;1.00;;;4.30;99.90;;;;;;5048623;28;36399;-77
2020/12/25 03:41:40;;;;;;;4.73;0.77;;;4.30;99.90;;;;;;5038868;28;38311;-77
2020/12/25 03:44:06;;;;;;;4.67;1.00;;;4.30;99.90;;;;;;5040636;28;37777;-76
2020/12/25 03:46:37;;;;;;;8.50;0.87;;;4.20;99.90;;;;;;5067153;28;39640;-77
2020/12/25 03:49:04;;;;;;;4.97;0.80;;;4.00;99.90;;;;;;5061615;28;38363;-77
2020/12/25 03:51:31;;;;;;;5.83;0.80;;;4.00;99.90;;;;;;5058916;28;38233;-77
2020/12/25 03:53:57;;;;;;;5.27;0.73;;;4.10;99.90;;;;;;5074486;28;39451;-77
2020/12/25 03:56:27;;;;;;;4.07;0.67;;;4.10;99.90;;;;;;5044322;28;20053;-76
2020/12/25 03:58:53;;;;;;;2.80;0.70;;;4.30;99.90;;;;;;5043326;28;36324;-77
2020/12/25 04:01:19;;;;;;;4.63;0.70;;;4.30;99.90;;;;;;5056752;28;39827;-77
2020/12/25 04:03:50;;;;;;;3.47;0.60;;;4.30;99.90;;;;;;5055009;28;38155;-77
2020/12/25 04:06:16;;;;;;;5.57;0.83;;;4.40;99.90;;;;;;5036206;28;39642;-77
2020/12/25 04:08:44;;;;;;;8.10;0.73;;;4.50;99.90;;;;;;5054640;28;37295;-76
2020/12/25 04:11:10;;;;;;;5.47;1.07;;;4.50;99.90;;;;;;5063778;28;38776;-77
2020/12/25 04:13:37;;;;;;;7.47;0.90;;;4.50;99.90;;;;;;5043600;28;38600;-76
2020/12/25 04:16:04;;;;;;;8.07;0.90;;;4.50;99.90;;;;;;5043775;28;37256;-76
2020/12/25 04:18:30;;;;;;;5.13;0.80;;;4.40;99.90;;;;;;5046496;28;37640;-77
2020/12/25 04:20:57;;;;;;;6.77;1.03;;;4.30;99.90;;;;;;5059612;28;37829;-77
2020/12/25 04:23:24;;;;;;;6.33;0.77;;;4.20;99.90;;;;;;5058389;28;38911;-77
2020/12/25 04:25:50;;;;;;;4.10;0.80;;;4.10;99.90;;;;;;5048424;28;38403;-77
2020/12/25 04:28:16;;;;;;;7.67;0.90;;;4.00;99.90;;;;;;5060830;28;36105;-76
2020/12/25 04:30:42;;;;;;;6.97;0.87;;;4.00;99.90;;;;;;5046442;28;38994;-77
2020/12/25 04:33:08;;;;;;;5.53;0.87;;;3.90;99.90;;;;;;5028799;28;39107;-76
2020/12/25 04:35:37;;;;;;;4.73;1.00;;;3.90;99.90;;;;;;5057139;28;38366;-77
2020/12/25 04:38:03;;;;;;;7.93;0.70;;;3.90;99.90;;;;;;5043367;28;36958;-77
2020/12/25 04:40:34;;;;;;;3.83;1.00;;;3.90;99.90;;;;;;5058103;28;38314;-77
2020/12/25 04:43:02;;;;;;;6.93;1.00;;;4.00;99.90;;;;;;5055004;28;39152;-77
2020/12/25 04:45:30;;;;;;;6.73;0.93;;;4.00;99.90;;;;;;5039210;28;48921;-76
2020/12/25 04:47:57;;;;;;;7.03;1.63;;;4.10;99.90;;;;;;5042832;28;37057;-77
2020/12/25 04:50:24;;;;;;;5.27;1.07;;;4.30;99.90;;;;;;5030742;28;38704;-76
2020/12/25 04:52:53;;;;;;;12.07;1.40;;;4.30;99.90;;;;;;5056401;28;40168;-77
2020/12/25 04:55:21;;;;;;;15.10;1.37;;;4.50;99.90;;;;;;5038474;28;39063;-77
2020/12/25 04:57:50;;;;;;;12.47;1.40;;;4.50;99.90;;;;;;5039904;28;37115;-76
2020/12/25 05:00:21;;;;;;;5.03;1.33;;;4.50;99.90;;;;;;5038784;28;38594;-77
2020/12/25 05:02:49;;;;;;;6.60;1.10;;;4.40;99.90;;;;;;5033616;28;39221;-76
2020/12/25 05:05:27;;;;;;;12.13;1.20;;;4.40;99.90;;;;;;5053781;28;38955;-76
2020/12/25 05:07:53;;;;;;;9.23;2.00;;;4.20;99.90;;;;;;5040377;28;37328;-77
2020/12/25 05:10:19;;;;;;;7.63;1.10;;;4.20;99.90;;;;;;5036639;28;38557;-76
2020/12/25 05:12:46;;;;;;;11.00;1.90;;;4.10;99.90;;;;;;5039344;28;39879;-76
2020/12/25 05:15:14;;;;;;;8.17;1.03;;;4.00;99.90;;;;;;5035582;28;38786;-76
2020/12/25 05:17:41;;;;;;;9.97;1.27;;;3.90;99.90;;;;;;5056141;28;39548;-76
2020/12/25 05:20:08;;;;;;;15.13;2.00;;;3.90;99.90;;;;;;5038709;28;39434;-76
2020/12/25 05:22:35;;;;;;;13.23;1.87;;;3.90;99.90;;;;;;5037531;28;39681;-76
2020/12/25 05:25:04;;;;;;;10.43;1.37;;;3.80;99.90;;;;;;5048337;28;37702;-76
2020/12/25 05:27:34;;;;;;;7.53;1.50;;;3.80;99.90;;;;;;5056003;28;46914;-76
2020/12/25 05:30:03;;;;;;;11.63;1.63;;;3.90;99.90;;;;;;5046259;28;39128;-77
2020/12/25 05:32:32;;;;;;;12.53;1.70;;;3.90;99.90;;;;;;5038729;28;47810;-76
2020/12/25 05:34:58;;;;;;;13.90;1.90;;;3.90;99.90;;;;;;5037911;28;37167;-76
2020/12/25 05:37:37;;;;;;;7.30;1.53;;;3.90;99.90;;;;;;5055576;28;36749;-76
2020/12/25 05:40:08;;;;;;;9.03;1.07;;;3.90;99.90;;;;;;5053139;28;40525;-76
2020/12/25 05:42:45;;;;;;;10.97;1.77;;;4.00;99.90;;;;;;5056616;28;38893;-77
2020/12/25 05:45:12;;;;;;;10.80;1.60;;;4.00;99.90;;;;;;5040201;28;38241;-76
2020/12/25 05:47:38;;;;;;;16.70;1.73;;;3.90;99.90;;;;;;5040641;28;38352;-77
2020/12/25 05:50:06;;;;;;;16.80;2.17;;;4.00;99.90;;;;;;5052953;28;39419;-76
2020/12/25 05:52:34;;;;;;;17.87;2.10;;;4.20;99.90;;;;;;5056357;28;38191;-76
2020/12/25 05:55:02;;;;;;;22.77;2.70;;;4.40;99.90;;;;;;5055250;28;39115;-76
2020/12/25 05:57:33;;;;;;;13.57;1.50;;;4.50;99.90;;;;;;5044773;28;48767;-77
2020/12/25 06:00:04;;;;;;;20.37;2.00;;;4.50;99.90;;;;;;5040165;28;39487;-77
2020/12/25 06:02:36;;;;;;;20.17;2.37;;;4.50;99.90;;;;;;5028907;28;48662;-76
2020/12/25 06:05:03;;;;;;;12.20;2.88;;;4.50;99.90;;;;;;5057764;28;38419;-77
2020/12/25 06:07:30;;;;;;;10.23;1.77;;;4.50;99.90;;;;;;5043774;28;48991;-77
2020/12/25 06:10:00;;;;;;;6.87;1.37;;;4.50;99.90;;;;;;5055511;28;39283;-76
2020/12/25 06:12:41;;;;;;;7.50;1.20;;;4.50;99.90;;;;;;5042356;28;39434;-76
2020/12/25 06:15:11;;;;;;;5.73;1.37;;;4.40;99.90;;;;;;5047093;28;36831;-76
2020/12/25 06:17:42;;;;;;;7.17;1.43;;;4.30;99.90;;;;;;5049548;28;37937;-77
2020/12/25 06:20:13;;;;;;;12.27;1.20;;;4.30;99.90;;;;;;5043451;28;39717;-76
2020/12/25 06:22:42;;;;;;;8.07;1.37;;;4.30;99.90;;;;;;5046787;28;38692;-76
2020/12/25 06:25:14;;;;;;;13.67;2.33;;;4.30;99.90;;;;;;5041139;28;38599;-76
2020/12/25 06:28:00;;;;;;;8.63;1.50;;;4.10;99.90;;;;;;5042839;28;37279;-76
2020/12/25 06:30:31;;;;;;;10.80;1.30;;;4.00;99.90;;;;;;5043148;28;37859;-76
2020/12/25 06:32:58;;;;;;;7.97;1.00;;;3.90;99.90;;;;;;5059097;28;38673;-77
2020/12/25 06:35:34;;;;;;;12.83;1.13;;;3.70;99.90;;;;;;5054503;28;39198;-76
2020/12/25 06:38:21;;;;;;;16.03;2.73;;;3.60;99.90;;;;;;5037107;28;36897;-77
2020/12/25 06:40:48;;;;;;;9.60;2.47;;;3.50;99.90;;;;;;5044648;28;48835;-76
2020/12/25 06:43:18;;;;;;;11.50;1.37;;;3.40;99.90;;;;;;5036358;28;38370;-76
2020/12/25 06:45:49;;;;;;;9.50;1.70;;;3.40;99.90;;;;;;5055532;28;36876;-77
2020/12/25 06:48:21;;;;;;;5.00;1.33;;;3.40;99.90;;;;;;5038917;28;37688;-76
2020/12/25 06:50:59;;;;;;;9.90;1.10;;;3.60;99.90;;;;;;5038052;28;38835;-76
2020/12/25 06:53:35;;;;;;;9.00;1.40;;;3.70;99.90;;;;;;5040740;28;40021;-76
2020/12/25 06:56:15;;;;;;;9.83;1.17;;;3.70;99.90;;;;;;5040458;28;39590;-77
2020/12/25 06:58:54;;;;;;;3.43;1.10;;;3.90;99.90;;;;;;5056276;28;47516;-76
2020/12/25 07:01:40;;;;;;;5.40;0.90;;;3.90;99.90;;;;;;5040525;28;39589;-76
2020/12/25 07:04:06;;;;;;;11.80;1.40;;;4.00;99.90;;;;;;5037083;28;41574;-76
2020/12/25 07:06:32;;;;;;;7.30;1.43;;;4.10;99.90;;;;;;5056286;28;39967;-77
2020/12/25 07:09:12;;;;;;;17.70;1.50;;;4.20;99.90;;;;;;5045051;28;37201;-77
2020/12/25 07:11:38;;;;;;;9.90;1.17;;;4.20;99.90;;;;;;5046893;28;48987;-76
2020/12/25 07:14:04;;;;;;;7.87;1.20;;;4.10;99.90;;;;;;5044949;28;39864;-76
2020/12/25 07:16:31;;;;;;;5.60;1.00;;;4.00;99.90;;;;;;5047382;28;37782;-76
2020/12/25 07:18:57;;;;;;;8.33;1.00;;;4.00;99.90;;;;;;5041375;28;37448;-77
2020/12/25 07:21:23;;;;;;;7.07;1.30;;;3.80;99.90;;;;;;5039615;28;39164;-77
2020/12/25 07:23:50;;;;;;;10.90;1.00;;;3.80;99.90;;;;;;5042487;28;39735;-76
2020/12/25 07:26:17;;;;;;;7.50;1.10;;;3.70;99.90;;;;;;5040719;28;41496;-77
2020/12/25 07:28:48;;;;;;;12.57;1.03;;;3.70;99.90;;;;;;5040713;28;37337;-76
2020/12/25 07:31:14;;;;;;;14.67;2.67;;;3.50;99.90;;;;;;5040186;28;37990;-76
2020/12/25 07:33:40;;;;;;;8.73;1.30;;;3.40;99.90;;;;;;5038396;28;39731;-76
2020/12/25 07:36:13;;;;;;;11.90;1.30;;;3.30;99.90;;;;;;5042173;28;38458;-76
2020/12/25 07:38:42;;;;;;;8.40;2.13;;;3.20;99.90;;;;;;5040775;28;37127;-76
2020/12/25 07:41:08;;;;;;;8.83;1.83;;;3.10;99.90;;;;;;5026777;28;39102;-77
2020/12/25 07:43:34;;;;;;;9.60;2.30;;;3.10;99.90;;;;;;5037138;28;39518;-76
2020/12/25 07:46:01;;;;;;;11.57;2.30;;;3.00;99.90;;;;;;5038628;28;38551;-76
2020/12/25 07:48:28;;;;;;;11.80;2.27;;;3.00;99.90;;;;;;5034143;28;46789;-76
2020/12/25 07:50:55;;;;;;;11.20;1.87;;;3.00;99.90;;;;;;5039498;28;38727;-77
2020/12/25 07:53:24;;;;;;;12.40;1.80;;;3.00;99.90;;;;;;5041693;28;38821;-76
2020/12/25 07:55:50;;;;;;;6.20;1.57;;;3.00;99.90;;;;;;5055291;28;38881;-76
2020/12/25 07:58:18;;;;;;;10.83;2.03;;;3.00;99.90;;;;;;5037357;28;36857;-77
2020/12/25 08:00:45;;;;;;;14.10;2.43;;;3.10;99.90;;;;;;5046924;28;38620;-77
2020/12/25 08:03:12;;;;;;;10.17;1.37;;;3.10;99.90;;;;;;5041667;28;38586;-76
2020/12/25 08:05:39;;;;;;;14.60;2.27;;;3.10;99.90;;;;;;5035277;28;39080;-77
2020/12/25 08:08:05;;;;;;;10.60;2.30;;;3.10;99.90;;;;;;5052697;28;37272;-77
2020/12/25 08:10:35;;;;;;;12.53;1.43;;;3.10;99.90;;;;;;5060627;28;40029;-77
2020/12/25 08:13:05;;;;;;;15.43;2.40;;;3.20;99.90;;;;;;5045794;28;40068;-77
2020/12/25 08:15:34;;;;;;;13.93;2.07;;;3.20;99.90;;;;;;5044925;28;38707;-77
2020/12/25 08:18:04;;;;;;;13.57;1.63;;;3.30;99.90;;;;;;5047955;28;35923;-77
2020/12/25 08:20:32;;;;;;;8.33;1.70;;;3.40;99.90;;;;;;5035822;28;47860;-77
2020/12/25 08:23:03;;;;;;;14.50;1.80;;;3.40;99.90;;;;;;5043384;28;39480;-77
2020/12/25 08:25:32;;;;;;;20.37;2.60;;;3.40;99.90;;;;;;5060410;28;47466;-77
2020/12/25 08:27:59;;;;;;;10.20;1.33;;;3.40;99.90;;;;;;5040439;28;38011;-77
2020/12/25 08:30:26;;;;;;;5.70;1.40;;;3.50;99.90;;;;;;5044338;28;40169;-77
2020/12/25 08:32:59;;;;;;;16.07;1.97;;;3.50;99.90;;;;;;5060030;28;39709;-77
2020/12/25 08:35:28;;;;;;;9.73;2.10;;;3.50;99.90;;;;;;5042879;28;38086;-76
2020/12/25 08:38:00;;;;;;;13.87;1.90;;;3.50;99.90;;;;;;5043683;28;36526;-77
2020/12/25 08:40:31;;;;;;;13.33;1.70;;;3.50;99.90;;;;;;5029593;28;47446;-76
2020/12/25 08:43:12;;;;;;;16.50;2.10;;;3.50;99.90;;;;;;5045546;28;38740;-77
2020/12/25 08:45:58;;;;;;;13.23;1.80;;;3.40;99.90;;;;;;5044410;28;49774;-76
2020/12/25 08:48:26;;;;;;;17.67;1.83;;;3.40;99.90;;;;;;5058107;28;37795;-76
2020/12/25 08:51:09;;;;;;;23.23;2.10;;;3.40;99.90;;;;;;5046500;28;38672;-76
2020/12/25 08:53:39;;;;;;;9.30;2.20;;;3.50;99.90;;;;;;5039930;28;48163;-76
2020/12/25 08:56:16;;;;;;;11.40;2.37;;;3.70;99.90;;;;;;5053941;28;39198;-77
2020/12/25 08:59:04;;;;;;;23.57;2.93;;;4.10;99.90;;;;;;5056593;28;37027;-75
2020/12/25 09:01:35;;;;;;;19.93;2.50;;;4.40;99.90;;;;;;5044964;28;38963;-75
2020/12/25 09:04:11;;;;;;;15.07;2.73;;;4.50;99.90;;;;;;5045232;28;39522;-77
2020/12/25 09:06:37;;;;;;;14.87;1.90;;;4.50;99.90;;;;;;5046076;28;48700;-76
2020/12/25 09:09:06;;;;;;;23.87;2.17;;;4.50;99.90;;;;;;5061213;28;39174;-76
2020/12/25 09:11:32;;;;;;;18.90;2.20;;;4.50;99.90;;;;;;5046559;28;42849;-76
2020/12/25 09:14:01;;;;;;;10.57;1.80;;;4.50;99.90;;;;;;5045647;28;39783;-76
2020/12/25 09:16:28;;;;;;;14.93;1.53;;;4.50;99.90;;;;;;5059331;28;41247;-77
2020/12/25 09:18:55;;;;;;;14.97;2.80;;;4.50;99.90;;;;;;5037678;28;37732;-77
2020/12/25 09:21:21;;;;;;;7.47;1.37;;;4.50;99.90;;;;;;5031600;28;38572;-77
2020/12/25 09:23:47;;;;;;;12.73;1.93;;;4.40;99.90;;;;;;5041987;28;39257;-77
2020/12/25 09:26:14;;;;;;;11.50;2.40;;;4.40;99.90;;;;;;5059540;28;39149;-76
2020/12/25 09:28:43;;;;;;;10.57;1.33;;;4.30;99.90;;;;;;5047126;28;37822;-76
2020/12/25 09:31:12;;;;;;;15.07;1.67;;;4.30;99.90;;;;;;5034941;28;39935;-76
2020/12/25 09:33:38;;;;;;;13.03;2.07;;;4.40;99.90;;;;;;5055766;28;40081;-76
2020/12/25 09:36:06;;;;;;;17.23;1.87;;;4.40;99.90;;;;;;5045557;28;38463;-76
2020/12/25 09:38:33;;;;;;;15.77;2.23;;;4.50;99.90;;;;;;5061691;28;38546;-76
2020/12/25 09:41:00;;;;;;;7.27;1.63;;;4.60;99.90;;;;;;5045082;28;39569;-76
2020/12/25 09:43:29;;;;;;;11.80;1.53;;;4.60;99.90;;;;;;5040050;28;47892;-76
2020/12/25 09:45:59;;;;;;;11.67;1.60;;;4.60;99.90;;;;;;5048563;28;38524;-80
2020/12/25 09:48:25;;;;;;;12.27;3.07;;;4.60;99.90;;;;;;5044625;28;36586;-76
2020/12/25 09:50:52;;;;;;;16.20;2.70;;;4.60;99.90;;;;;;5045172;28;39706;-76
2020/12/25 09:53:18;;;;;;;15.07;2.97;;;4.60;99.90;;;;;;5058280;28;39409;-75
2020/12/25 09:55:44;;;;;;;13.17;1.60;;;4.60;99.90;;;;;;5046215;28;38650;-76
2020/12/25 09:58:10;;;;;;;12.23;1.60;;;4.70;99.90;;;;;;5058879;28;38517;-76
2020/12/25 10:00:39;;;;;;;11.67;1.43;;;4.70;99.90;;;;;;5057663;28;38738;-75
2020/12/25 10:03:05;;;;;;;10.83;1.27;;;4.80;99.90;;;;;;5037115;28;39911;-75
2020/12/25 10:05:32;;;;;;;11.77;1.80;;;5.00;99.90;;;;;;5044087;28;38178;-75
2020/12/25 10:07:58;;;;;;;14.73;1.70;;;5.20;99.90;;;;;;5044054;28;36096;-75
2020/12/25 10:10:24;;;;;;;17.77;1.70;;;5.40;99.90;;;;;;5046631;28;38725;-75
2020/12/25 10:12:52;;;;;;;13.87;2.00;;;5.80;99.90;;;;;;5046920;28;37811;-76
2020/12/25 10:15:19;;;;;;;11.47;1.53;;;6.10;99.90;;;;;;5044418;28;39275;-76
2020/12/25 10:17:48;;;;;;;9.67;2.53;;;6.30;99.90;;;;;;5063123;28;36687;-75
2020/12/25 10:20:14;;;;;;;9.70;2.37;;;6.30;99.90;;;;;;5047420;28;38486;-76
2020/12/25 10:22:40;;;;;;;7.70;1.80;;;6.20;99.90;;;;;;5045918;28;38678;-76
2020/12/25 10:25:06;;;;;;;3.30;1.30;;;6.10;99.90;;;;;;5044198;28;38637;-76
2020/12/25 10:27:32;;;;;;;6.47;1.07;;;6.00;99.90;;;;;;5048968;28;38803;-75
2020/12/25 10:29:59;;;;;;;4.80;0.70;;;6.00;99.90;;;;;;5043263;28;38811;-76
2020/12/25 10:32:25;;;;;;;4.63;0.97;;;6.00;99.90;;;;;;5042653;28;39288;-76
2020/12/25 10:34:51;;;;;;;9.23;1.20;;;6.00;99.90;;;;;;5050020;28;37567;-76
2020/12/25 10:37:17;;;;;;;9.07;0.87;;;6.00;99.90;;;;;;5047858;28;37714;-76
2020/12/25 10:39:46;;;;;;;7.83;0.80;;;6.00;99.90;;;;;;5047050;28;39955;-76
2020/12/25 10:42:14;;;;;;;6.23;0.97;;;5.90;99.90;;;;;;5054403;28;39382;-76
2020/12/25 10:44:40;;;;;;;6.80;1.23;;;5.80;99.90;;;;;;5061972;28;39078;-76
2020/12/25 10:47:06;;;;;;;6.60;1.27;;;5.70;99.90;;;;;;5048396;28;37145;-76
2020/12/25 10:49:32;;;;;;;13.07;1.10;;;5.80;99.90;;;;;;5045314;28;39768;-76
2020/12/25 10:52:01;;;;;;;6.23;1.60;;;5.80;99.90;;;;;;5044946;28;38999;-76
2020/12/25 10:54:28;;;;;;;6.30;0.87;;;6.00;99.90;;;;;;5031950;28;47071;-77
2020/12/25 10:56:54;;;;;;;6.07;1.33;;;6.00;99.90;;;;;;5044799;28;38630;-76
2020/12/25 10:59:20;;;;;;;7.93;1.30;;;6.10;99.90;;;;;;5041766;28;39055;-76
2020/12/25 11:01:48;;;;;;;10.27;1.40;;;6.00;99.90;;;;;;5065867;28;39691;-77
2020/12/25 11:04:14;;;;;;;9.57;1.27;;;5.80;99.90;;;;;;5042312;28;39340;-78
2020/12/25 11:06:41;;;;;;;7.07;1.17;;;5.70;99.90;;;;;;5042097;28;36687;-77
2020/12/25 11:09:08;;;;;;;9.60;1.30;;;5.50;99.90;;;;;;5049331;28;38827;-77
2020/12/25 11:11:37;;;;;;;14.17;3.33;;;5.40;99.90;;;;;;5039348;28;39038;-77
2020/12/25 11:14:03;;;;;;;11.10;2.80;;;5.30;99.90;;;;;;5055905;28;37968;-76
2020/12/25 11:16:32;;;;;;;11.17;2.07;;;5.20;99.90;;;;;;5056576;28;37170;-77
2020/12/25 11:19:03;;;;;;;6.97;1.80;;;5.20;99.90;;;;;;5046221;28;38056;-76
2020/12/25 11:21:31;;;;;;;9.67;1.60;;;5.10;99.90;;;;;;5044990;28;49194;-76
2020/12/25 11:23:59;;;;;;;6.80;1.13;;;5.10;99.90;;;;;;5044255;28;36447;-77
2020/12/25 11:26:35;;;;;;;10.87;1.53;;;5.20;99.90;;;;;;5045561;28;36011;-77
2020/12/25 11:29:04;;;;;;;10.17;1.83;;;5.30;99.90;;;;;;5044958;28;39407;-77
2020/12/25 11:31:30;;;;;;;10.27;1.30;;;5.40;99.90;;;;;;5059979;28;47852;-74
2020/12/25 11:33:57;;;;;;;11.07;1.50;;;5.50;99.90;;;;;;5036060;28;37458;-76
2020/12/25 11:36:25;;;;;;;7.87;1.80;;;5.60;99.90;;;;;;5042799;28;37541;-76
2020/12/25 11:38:52;;;;;;;11.80;1.30;;;5.70;99.90;;;;;;5056406;28;37803;-76
2020/12/25 11:41:22;;;;;;;9.37;1.40;;;5.90;99.90;;;;;;5040041;28;38104;-76
2020/12/25 11:43:49;;;;;;;11.17;1.50;;;6.00;99.90;;;;;;5043268;28;38950;-76
2020/12/25 11:46:16;;;;;;;4.40;1.10;;;6.10;99.90;;;;;;5054442;28;37983;-75
2020/12/25 11:48:43;;;;;;;12.93;1.60;;;6.20;99.90;;;;;;5043601;28;38255;-75
2020/12/25 11:51:17;;;;;;;11.90;2.00;;;6.30;99.90;;;;;;5061122;28;37709;-75
2020/12/25 11:53:43;;;;;;;11.60;3.27;;;6.40;99.90;;;;;;5060781;28;38591;-75
2020/12/25 11:56:09;;;;;;;9.17;1.93;;;6.50;99.90;;;;;;5035853;28;36517;-76
2020/12/25 11:58:35;;;;;;;9.07;1.60;;;6.70;99.90;;;;;;5043857;28;38712;-75
2020/12/25 12:01:01;;;;;;;5.93;1.20;;;7.00;99.90;;;;;;5038941;28;36578;-75
2020/12/25 12:03:28;;;;;;;6.73;1.27;;;7.30;99.90;;;;;;5036789;28;38404;-76
2020/12/25 12:05:54;;;;;;;8.73;1.20;;;7.50;99.90;;;;;;5041274;28;35585;-75
2020/12/25 12:08:20;;;;;;;13.77;1.43;;;7.50;99.90;;;;;;5040250;28;38975;-75
2020/12/25 12:10:46;;;;;;;8.80;1.30;;;7.10;99.90;;;;;;5043075;28;38616;-75
2020/12/25 12:13:12;;;;;;;8.50;1.70;;;6.60;99.90;;;;;;5040382;28;38552;-75
2020/12/25 12:15:40;;;;;;;8.50;0.80;;;6.20;99.90;;;;;;5052988;28;38597;-75
2020/12/25 12:18:07;;;;;;;5.17;0.93;;;5.90;99.90;;;;;;5039839;28;38163;-76
2020/12/25 12:20:35;;;;;;;6.53;1.20;;;5.80;99.90;;;;;;5045123;28;38742;-76
2020/12/25 12:23:02;;;;;;;4.07;0.60;;;5.70;99.90;;;;;;5052172;28;38648;-76
2020/12/25 12:25:28;;;;;;;4.27;0.77;;;5.60;99.90;;;;;;5047358;28;37124;-76
2020/12/25 12:27:54;;;;;;;3.37;1.20;;;5.50;99.90;;;;;;5041749;28;38378;-76
2020/12/25 12:30:21;;;;;;;4.47;0.60;;;5.50;99.90;;;;;;5040870;28;37556;-76
2020/12/25 12:32:47;;;;;;;5.67;1.00;;;5.60;99.90;;;;;;5059862;28;38408;-76
2020/12/25 12:35:14;;;;;;;6.63;0.70;;;5.90;99.90;;;;;;5054159;28;36325;-76
2020/12/25 12:37:44;;;;;;;7.20;0.87;;;6.20;99.90;;;;;;5041139;28;38201;-76
2020/12/25 12:40:11;;;;;;;7.57;0.80;;;6.70;99.90;;;;;;5059508;28;38007;-76
2020/12/25 12:42:37;;;;;;;3.93;0.73;;;7.00;99.90;;;;;;5061625;28;38354;-75
2020/12/25 12:45:06;;;;;;;7.07;1.10;;;6.40;99.90;;;;;;5045408;28;37098;-76
2020/12/25 12:47:32;;;;;;;5.63;0.90;;;6.00;99.90;;;;;;5041201;28;37872;-76
2020/12/25 12:49:58;;;;;;;6.57;1.20;;;5.70;99.90;;;;;;5048934;28;38570;-76
2020/12/25 12:52:25;;;;;;;12.57;1.30;;;5.50;99.90;;;;;;5065379;28;38177;-76
2020/12/25 12:54:51;;;;;;;9.90;0.97;;;5.30;99.90;;;;;;5071445;28;36480;-76
2020/12/25 12:57:17;;;;;;;4.67;0.90;;;5.30;99.90;;;;;;5050237;28;39381;-76